Time;durP1;ratioP1;P1;durP2;ratioP2;P2;SDS_P1;SDS_P2;PMS_P1;PMS_P2;Temp;Humidity;BMP_temperature;BMP_pressure;BME280_temperature;BME280_humidity;BME280_pressure;Samples;Min_cycle;Max_cycle;Signal;HPM_P1;HPM_P2
2023/09/09 00:00:56;;;;;;;1.67;1.58;;;18.80;1.00;;;;;;5073780;28;20061;-63
2023/09/09 00:03:22;;;;;;;2.28;2.03;;;18.80;1.00;;;;;;5073912;28;20040;-63
2023/09/09 00:05:48;;;;;;;1.83;1.73;;;18.80;1.00;;;;;;5056216;28;20048;-64
2023/09/09 00:08:16;;;;;;;1.80;1.70;;;19.30;1.00;;;;;;5055993;28;20071;-64
2023/09/09 00:10:42;;;;;;;1.95;1.75;;;18.80;1.00;;;;;;5074122;28;20076;-64
2023/09/09 00:13:09;;;;;;;1.80;1.70;;;18.70;1.00;;;;;;5055778;28;20511;-64
2023/09/09 00:15:34;;;;;;;1.70;1.60;;;19.20;2.00;;;;;;5073675;28;20056;-64
2023/09/09 00:18:04;;;;;;;1.90;1.80;;;18.70;3.90;;;;;;5073938;28;20024;-63
2023/09/09 00:20:34;;;;;;;1.70;1.60;;;18.70;1.00;;;;;;5074042;28;20047;-66
2023/09/09 00:23:07;;;;;;;2.05;1.95;;;18.70;1.20;;;;;;5055890;28;20484;-67
2023/09/09 00:25:36;;;;;;;1.70;1.60;;;18.60;5.70;;;;;;5073865;28;20120;-66
2023/09/09 00:28:02;;;;;;;1.70;1.60;;;18.70;4.30;;;;;;5073410;28;20044;-66
2023/09/09 00:30:28;;;;;;;1.95;1.77;;;18.60;9.00;;;;;;5073375;28;20123;-63
2023/09/09 00:32:54;;;;;;;2.38;2.17;;;18.60;13.10;;;;;;5073623;28;20552;-64
2023/09/09 00:35:20;;;;;;;2.05;1.90;;;18.60;9.30;;;;;;5073576;28;20135;-63
2023/09/09 00:37:45;;;;;;;2.05;1.85;;;19.20;12.30;;;;;;5073579;28;20400;-63
2023/09/09 00:40:12;;;;;;;1.85;1.75;;;18.60;22.70;;;;;;5073184;28;20502;-63
2023/09/09 00:42:37;;;;;;;2.40;2.20;;;19.40;26.00;;;;;;5073275;28;20113;-63
2023/09/09 00:45:03;;;;;;;1.80;1.63;;;18.60;26.80;;;;;;5073481;28;20075;-64
2023/09/09 00:47:29;;;;;;;2.10;2.00;;;18.60;27.70;;;;;;5073476;28;20041;-64
2023/09/09 00:49:55;;;;;;;3.08;2.00;;;18.50;28.10;;;;;;5055487;28;20040;-63
2023/09/09 00:52:21;;;;;;;2.10;2.00;;;18.50;25.30;;;;;;5073310;28;20040;-63
2023/09/09 00:54:47;;;;;;;2.05;1.88;;;18.50;26.60;;;;;;5055030;28;20032;-63
2023/09/09 00:57:15;;;;;;;2.20;2.10;;;18.50;22.80;;;;;;5072067;28;20059;-63
2023/09/09 00:59:40;;;;;;;1.95;1.75;;;18.50;20.70;;;;;;5073318;28;20032;-63
2023/09/09 01:02:06;;;;;;;1.85;1.75;;;18.50;22.60;;;;;;5073154;28;20116;-63
2023/09/09 01:04:32;;;;;;;2.22;2.03;;;18.50;26.30;;;;;;5055104;28;20101;-63
2023/09/09 01:07:01;;;;;;;2.28;2.13;;;18.50;28.00;;;;;;5055154;28;20143;-63
2023/09/09 01:09:27;;;;;;;4.38;2.15;;;18.40;28.70;;;;;;5073197;28;20052;-63
2023/09/09 01:11:53;;;;;;;3.78;2.40;;;18.40;38.20;;;;;;5073081;28;20766;-63
2023/09/09 01:14:18;;;;;;;2.38;2.17;;;18.40;43.90;;;;;;5073098;28;20464;-63
2023/09/09 01:16:46;;;;;;;2.50;2.30;;;18.40;48.50;;;;;;5073064;28;20071;-63
2023/09/09 01:19:15;;;;;;;2.70;2.17;;;18.40;50.10;;;;;;5072778;28;20040;-63
2023/09/09 01:21:43;;;;;;;2.67;2.47;;;18.30;52.30;;;;;;5073091;28;20473;-63
2023/09/09 01:24:12;;;;;;;2.50;2.30;;;18.30;52.10;;;;;;5073011;28;20412;-64
2023/09/09 01:26:37;;;;;;;2.38;2.17;;;18.30;48.50;;;;;;5054315;28;20048;-63
2023/09/09 01:29:03;;;;;;;2.20;2.05;;;18.30;50.80;;;;;;5054878;28;20544;-63
2023/09/09 01:31:28;;;;;;;2.50;2.30;;;18.30;47.90;;;;;;5072591;28;20068;-64
2023/09/09 01:33:56;;;;;;;2.58;2.38;;;18.30;52.80;;;;;;5072874;28;20043;-64
2023/09/09 01:36:22;;;;;;;2.50;2.30;;;18.50;58.70;;;;;;5072920;28;20067;-63
2023/09/09 01:38:47;;;;;;;2.88;2.67;;;18.20;53.00;;;;;;5072929;28;20037;-65
2023/09/09 01:41:13;;;;;;;2.97;2.72;;;18.20;55.10;;;;;;5072589;28;20495;-66
2023/09/09 01:43:38;;;;;;;2.88;2.67;;;18.20;59.90;;;;;;5072822;28;20036;-66
2023/09/09 01:46:04;;;;;;;2.55;2.35;;;18.20;64.80;;;;;;5072789;28;20084;-66
2023/09/09 01:48:30;;;;;;;2.95;2.75;;;18.20;63.60;;;;;;5072749;28;20387;-66
2023/09/09 01:50:55;;;;;;;2.55;2.35;;;18.20;63.60;;;;;;5072846;28;20028;-67
2023/09/09 01:53:21;;;;;;;2.70;2.50;;;18.10;66.90;;;;;;5054884;28;20044;-67
2023/09/09 01:55:46;;;;;;;2.67;2.47;;;18.10;67.50;;;;;;5072438;28;20044;-67
2023/09/09 01:58:12;;;;;;;2.67;2.47;;;18.40;68.50;;;;;;5072667;28;20527;-66
2023/09/09 02:00:37;;;;;;;2.90;2.70;;;18.20;68.70;;;;;;5054720;28;20395;-67
2023/09/09 02:03:03;;;;;;;2.78;2.58;;;18.10;69.10;;;;;;5054658;28;20036;-66
2023/09/09 02:05:29;;;;;;;2.95;2.75;;;18.10;68.50;;;;;;5072225;28;20037;-67
2023/09/09 02:07:54;;;;;;;3.50;3.20;;;18.10;69.60;;;;;;5072636;28;20044;-66
2023/09/09 02:10:20;;;;;;;3.15;2.92;;;18.10;70.80;;;;;;5072588;28;20162;-67
2023/09/09 02:12:45;;;;;;;3.30;3.10;;;18.30;68.60;;;;;;5072470;28;20033;-66
2023/09/09 02:15:13;;;;;;;2.95;2.75;;;18.10;70.90;;;;;;5054273;28;20048;-66
2023/09/09 02:17:38;;;;;;;3.05;2.75;;;18.10;69.90;;;;;;5072488;28;20408;-66
2023/09/09 02:20:06;;;;;;;3.45;3.15;;;18.20;68.30;;;;;;5072473;28;20044;-66
2023/09/09 02:22:31;;;;;;;3.20;2.90;;;18.00;68.70;;;;;;5072202;28;20071;-66
2023/09/09 02:24:57;;;;;;;3.45;3.15;;;18.00;73.10;;;;;;5072418;28;20036;-67
2023/09/09 02:27:23;;;;;;;2.90;2.70;;;18.00;71.90;;;;;;5072127;28;20048;-66
2023/09/09 02:29:50;;;;;;;2.78;2.58;;;18.00;81.10;;;;;;5072086;28;20080;-66
2023/09/09 02:32:19;;;;;;;2.47;2.28;;;18.00;83.00;;;;;;5071883;28;20423;-66
2023/09/09 02:34:45;;;;;;;2.63;2.42;;;17.90;83.40;;;;;;5072108;28;20044;-66
2023/09/09 02:37:19;;;;;;;2.80;2.60;;;17.90;82.40;;;;;;5072664;28;20033;-66
2023/09/09 02:39:45;;;;;;;2.88;2.67;;;17.90;80.40;;;;;;5076036;28;20128;-63
2023/09/09 02:42:13;;;;;;;2.67;2.47;;;17.90;82.50;;;;;;5075850;28;20047;-63
2023/09/09 02:44:39;;;;;;;2.80;2.60;;;17.90;84.40;;;;;;5057915;28;20044;-63
2023/09/09 02:47:06;;;;;;;3.05;2.85;;;18.30;82.70;;;;;;5057494;28;20059;-63
2023/09/09 02:49:32;;;;;;;3.00;2.80;;;17.90;83.10;;;;;;5075804;28;20044;-66
2023/09/09 02:51:57;;;;;;;2.65;2.45;;;17.90;82.00;;;;;;5075541;28;20381;-66
2023/09/09 02:54:23;;;;;;;3.10;2.90;;;17.90;83.70;;;;;;5075594;28;20397;-66
2023/09/09 02:56:49;;;;;;;3.45;3.15;;;17.90;85.10;;;;;;5075579;28;20391;-68
2023/09/09 02:59:14;;;;;;;3.20;2.90;;;17.90;86.00;;;;;;5075540;28;20041;-66
2023/09/09 03:01:40;;;;;;;2.85;2.65;;;17.90;86.40;;;;;;5075414;28;20080;-66
2023/09/09 03:04:05;;;;;;;3.15;2.85;;;17.90;86.50;;;;;;5057181;28;20423;-67
2023/09/09 03:06:31;;;;;;;2.70;2.50;;;17.80;84.70;;;;;;5075178;28;20040;-66
2023/09/09 03:08:56;;;;;;;3.25;2.97;;;17.90;86.80;;;;;;5057225;28;20098;-67
2023/09/09 03:11:22;;;;;;;2.67;2.47;;;17.80;88.50;;;;;;5075177;28;20476;-66
2023/09/09 03:13:48;;;;;;;3.97;3.00;;;17.90;88.80;;;;;;5075025;28;20469;-66
2023/09/09 03:16:13;;;;;;;3.03;2.83;;;17.80;87.50;;;;;;5075126;28;20036;-66
2023/09/09 03:18:39;;;;;;;2.95;2.75;;;17.80;89.60;;;;;;5057255;28;20064;-66
2023/09/09 03:21:04;;;;;;;2.92;2.72;;;17.80;88.00;;;;;;5075142;28;20472;-66
2023/09/09 03:23:30;;;;;;;3.35;3.05;;;17.70;87.80;;;;;;5075139;28;20134;-66
2023/09/09 03:25:56;;;;;;;2.83;2.63;;;17.80;87.80;;;;;;5075034;28;20064;-66
2023/09/09 03:28:21;;;;;;;2.83;2.63;;;17.70;89.10;;;;;;5074605;28;20040;-66
2023/09/09 03:30:59;;;;;;;3.33;3.10;;;17.70;86.30;;;;;;5074616;28;20056;-63
2023/09/09 03:33:27;;;;;;;2.90;2.70;;;17.80;88.70;;;;;;5074768;28;20048;-63
2023/09/09 03:35:53;;;;;;;3.95;3.55;;;17.90;87.50;;;;;;5074625;28;20033;-63
2023/09/09 03:38:18;;;;;;;3.05;2.85;;;17.70;91.40;;;;;;5074754;28;20036;-64
2023/09/09 03:40:44;;;;;;;3.15;2.95;;;17.90;92.30;;;;;;5074705;28;20047;-63
2023/09/09 03:43:12;;;;;;;3.17;2.97;;;17.90;91.80;;;;;;5056566;28;20044;-63
2023/09/09 03:45:37;;;;;;;2.75;2.55;;;17.70;91.50;;;;;;5074586;28;20105;-63
2023/09/09 03:48:04;;;;;;;2.97;2.78;;;17.60;90.30;;;;;;5074016;28;20037;-63
2023/09/09 03:50:30;;;;;;;3.38;3.13;;;17.70;91.10;;;;;;5074341;28;20102;-64
2023/09/09 03:52:56;;;;;;;2.80;2.60;;;17.70;91.80;;;;;;5074438;28;20052;-63
2023/09/09 03:55:21;;;;;;;3.25;3.05;;;17.70;91.20;;;;;;5056291;28;20531;-63
2023/09/09 03:57:47;;;;;;;3.28;2.97;;;17.70;90.20;;;;;;5056265;28;20552;-63
2023/09/09 04:00:13;;;;;;;3.47;3.17;;;17.70;88.60;;;;;;5074092;28;20047;-63
2023/09/09 04:02:39;;;;;;;3.70;3.40;;;17.70;88.20;;;;;;5074273;28;20040;-63
2023/09/09 04:05:06;;;;;;;3.28;3.08;;;17.60;89.50;;;;;;5073936;28;20089;-63
2023/09/09 04:07:35;;;;;;;4.07;3.65;;;17.60;89.50;;;;;;5056057;28;20040;-63
2023/09/09 04:10:01;;;;;;;3.72;3.42;;;18.00;90.30;;;;;;5074229;28;20422;-64
2023/09/09 04:12:27;;;;;;;3.63;3.33;;;17.60;90.90;;;;;;5073997;28;20089;-63
2023/09/09 04:14:52;;;;;;;3.65;3.35;;;18.30;90.30;;;;;;5074005;28;20033;-66
2023/09/09 04:17:18;;;;;;;3.92;3.63;;;17.70;90.70;;;;;;5073971;28;20033;-63
2023/09/09 04:19:43;;;;;;;4.55;4.25;;;17.70;90.30;;;;;;5074059;28;20036;-63
2023/09/09 04:22:09;;;;;;;4.40;4.10;;;18.20;91.10;;;;;;5073887;28;20477;-63
2023/09/09 04:24:35;;;;;;;4.10;3.80;;;17.70;91.00;;;;;;5073906;28;20391;-63
2023/09/09 04:27:00;;;;;;;3.95;3.65;;;17.70;90.80;;;;;;5073762;28;20040;-63
2023/09/09 04:29:26;;;;;;;3.78;3.47;;;17.70;91.10;;;;;;5073772;28;20032;-63
2023/09/09 04:31:51;;;;;;;3.90;3.60;;;17.70;91.10;;;;;;5073331;28;20511;-63
2023/09/09 04:34:17;;;;;;;4.43;4.13;;;17.70;90.80;;;;;;5073407;28;20407;-63
2023/09/09 04:36:45;;;;;;;4.45;4.07;;;18.00;90.80;;;;;;5073264;28;20184;-63
2023/09/09 04:39:13;;;;;;;4.15;3.80;;;17.60;90.50;;;;;;5055791;28;20036;-63
2023/09/09 04:41:40;;;;;;;4.15;3.85;;;17.70;90.50;;;;;;5073509;28;20033;-63
2023/09/09 04:44:05;;;;;;;4.50;4.18;;;17.60;90.30;;;;;;5073494;28;20033;-63
2023/09/09 04:46:31;;;;;;;4.00;3.65;;;17.70;91.00;;;;;;5073506;28;20043;-63
2023/09/09 04:48:57;;;;;;;4.20;3.90;;;17.60;91.20;;;;;;5073506;28;20036;-63
2023/09/09 04:51:22;;;;;;;4.13;3.83;;;17.60;90.80;;;;;;5055524;28;20085;-63
2023/09/09 04:53:48;;;;;;;4.43;4.13;;;17.70;90.30;;;;;;5073395;28;20040;-64
2023/09/09 04:56:14;;;;;;;4.38;4.07;;;17.60;90.70;;;;;;5073321;28;20062;-66
2023/09/09 04:58:39;;;;;;;4.38;3.97;;;18.00;91.10;;;;;;5073392;28;20033;-63
2023/09/09 05:01:05;;;;;;;4.05;3.67;;;17.60;91.60;;;;;;5072700;28;20041;-66
2023/09/09 05:03:30;;;;;;;4.65;4.25;;;18.10;91.30;;;;;;5073229;28;20497;-66
2023/09/09 05:05:56;;;;;;;4.18;3.88;;;17.60;90.70;;;;;;5055272;28;20451;-66
2023/09/09 05:08:22;;;;;;;4.93;4.45;;;17.60;90.70;;;;;;5072878;28;20053;-66
2023/09/09 05:10:47;;;;;;;3.70;3.40;;;17.50;90.40;;;;;;5073307;28;20143;-63
2023/09/09 05:13:13;;;;;;;4.18;3.88;;;17.60;90.30;;;;;;5073113;28;20486;-63
2023/09/09 05:15:38;;;;;;;4.00;3.70;;;17.60;90.00;;;;;;5055213;28;20476;-63
2023/09/09 05:18:04;;;;;;;3.88;3.58;;;17.70;90.00;;;;;;5073137;28;20041;-63
2023/09/09 05:20:30;;;;;;;4.70;4.30;;;17.60;89.50;;;;;;5073072;28;20086;-63
2023/09/09 05:22:55;;;;;;;4.50;4.10;;;17.70;89.60;;;;;;5072715;28;20044;-64
2023/09/09 05:25:21;;;;;;;3.80;3.50;;;17.70;89.10;;;;;;5073047;28;20119;-63
2023/09/09 05:27:47;;;;;;;4.45;3.90;;;17.70;87.90;;;;;;5072674;28;20098;-64
2023/09/09 05:30:12;;;;;;;3.83;3.53;;;17.70;88.60;;;;;;5073119;28;20036;-63
2023/09/09 05:32:38;;;;;;;3.63;3.33;;;17.70;89.50;;;;;;5072531;28;20132;-64
2023/09/09 05:35:06;;;;;;;3.72;3.47;;;17.80;88.90;;;;;;5072954;28;20484;-63
2023/09/09 05:37:32;;;;;;;3.75;3.45;;;17.80;90.10;;;;;;5072960;28;20439;-63
2023/09/09 05:39:57;;;;;;;4.05;3.75;;;17.80;90.00;;;;;;5072946;28;20037;-64
2023/09/09 05:42:23;;;;;;;4.05;3.75;;;17.90;90.10;;;;;;5072850;28;20044;-63
2023/09/09 05:44:49;;;;;;;4.40;4.00;;;17.90;90.20;;;;;;5072892;28;20123;-63
2023/09/09 05:47:14;;;;;;;4.63;3.70;;;18.20;89.70;;;;;;5072803;28;20472;-63
2023/09/09 05:49:40;;;;;;;3.90;3.60;;;18.00;89.70;;;;;;5072669;28;20051;-63
2023/09/09 05:52:06;;;;;;;3.58;3.28;;;18.40;90.20;;;;;;5072508;28;20054;-63
2023/09/09 05:54:32;;;;;;;4.78;4.22;;;18.10;90.00;;;;;;5072799;28;20083;-63
2023/09/09 05:56:58;;;;;;;4.13;3.72;;;18.20;88.80;;;;;;5072729;28;20036;-63
2023/09/09 05:59:24;;;;;;;4.78;4.28;;;18.30;89.00;;;;;;5072730;28;20113;-63
2023/09/09 06:01:49;;;;;;;3.83;3.53;;;18.30;87.60;;;;;;5072746;28;20067;-63
2023/09/09 06:04:18;;;;;;;3.85;3.55;;;18.80;87.60;;;;;;5054450;28;20452;-63
2023/09/09 06:06:45;;;;;;;4.22;3.90;;;18.40;86.40;;;;;;5054410;28;20415;-63
2023/09/09 06:09:11;;;;;;;4.05;3.75;;;19.20;84.90;;;;;;5072575;28;20093;-63
2023/09/09 06:11:37;;;;;;;3.78;3.47;;;18.50;83.60;;;;;;5073706;28;20472;-63
2023/09/09 06:14:02;;;;;;;4.15;3.80;;;18.60;81.50;;;;;;5041508;28;20036;-63
2023/09/09 06:16:28;;;;;;;3.40;3.10;;;18.60;79.70;;;;;;5076004;28;20063;-63
2023/09/09 06:18:54;;;;;;;3.72;3.42;;;18.70;78.90;;;;;;5076327;28;20048;-63
2023/09/09 06:21:20;;;;;;;3.85;3.55;;;18.80;78.40;;;;;;5076228;28;20419;-66
2023/09/09 06:23:46;;;;;;;3.58;3.28;;;18.80;78.10;;;;;;5076176;28;20044;-66
2023/09/09 06:26:11;;;;;;;3.95;3.65;;;18.90;77.60;;;;;;5076162;28;20036;-66
2023/09/09 06:28:37;;;;;;;3.33;3.03;;;19.00;75.90;;;;;;5075860;28;20051;-66
2023/09/09 06:31:03;;;;;;;3.65;3.35;;;19.10;71.70;;;;;;5057859;28;20412;-66
2023/09/09 06:33:29;;;;;;;3.88;3.58;;;19.20;68.30;;;;;;5075914;28;20049;-66
2023/09/09 06:35:55;;;;;;;3.75;3.45;;;19.30;63.60;;;;;;5075671;28;20102;-66
2023/09/09 06:38:21;;;;;;;3.58;3.28;;;19.40;58.60;;;;;;5075888;28;20384;-66
2023/09/09 06:40:47;;;;;;;3.10;2.88;;;19.60;46.10;;;;;;5075871;28;20033;-66
2023/09/09 06:43:15;;;;;;;3.50;3.20;;;19.60;31.60;;;;;;5040980;28;20044;-67
2023/09/09 06:45:41;;;;;;;3.10;2.90;;;19.80;22.80;;;;;;5075514;28;20046;-66
2023/09/09 06:48:06;;;;;;;3.63;3.33;;;20.60;10.70;;;;;;5075645;28;20111;-66
2023/09/09 06:50:32;;;;;;;3.90;3.40;;;20.10;3.30;;;;;;5075430;28;20499;-66
2023/09/09 06:52:58;;;;;;;3.33;3.03;;;20.10;1.00;;;;;;5057381;28;20040;-66
2023/09/09 06:55:23;;;;;;;3.67;2.60;;;20.20;1.00;;;;;;5075606;28;20036;-66
2023/09/09 06:57:49;;;;;;;3.00;2.72;;;20.50;1.00;;;;;;5075226;28;20091;-66
2023/09/09 07:00:16;;;;;;;3.63;3.33;;;20.60;1.00;;;;;;5057226;28;20040;-71
2023/09/09 07:02:42;;;;;;;3.22;2.60;;;20.70;1.00;;;;;;5075504;28;20052;-78
2023/09/09 07:05:08;;;;;;;2.88;2.67;;;20.80;1.00;;;;;;5057058;28;20043;-67
2023/09/09 07:07:33;;;;;;;2.88;2.67;;;20.90;1.00;;;;;;5075432;28;20059;-67
2023/09/09 07:09:59;;;;;;;2.70;2.50;;;21.00;1.00;;;;;;5075280;28;20044;-67
2023/09/09 07:12:25;;;;;;;3.00;2.80;;;21.20;1.00;;;;;;5074910;28;20045;-67
2023/09/09 07:14:50;;;;;;;3.60;3.30;;;21.80;1.00;;;;;;5075225;28;20039;-67
2023/09/09 07:17:16;;;;;;;4.47;2.75;;;21.10;1.00;;;;;;5075176;28;20040;-67
2023/09/09 07:19:41;;;;;;;3.45;3.15;;;21.50;1.00;;;;;;5075276;28;20080;-67
2023/09/09 07:22:07;;;;;;;3.42;3.13;;;21.60;1.00;;;;;;5074864;28;20040;-67
2023/09/09 07:24:33;;;;;;;3.45;3.13;;;20.50;99.90;;;;;;5074180;28;20051;-67
2023/09/09 07:27:03;;;;;;;2.53;2.33;;;21.70;99.90;;;;;;5075021;28;20037;-67
2023/09/09 07:29:29;;;;;;;3.63;3.33;;;21.80;99.90;;;;;;5056727;28;20052;-68
2023/09/09 07:31:54;;;;;;;2.95;2.75;;;21.90;99.90;;;;;;5074554;28;20416;-67
2023/09/09 07:34:20;;;;;;;5.18;3.35;;;22.00;99.90;;;;;;5056606;28;20113;-67
2023/09/09 07:36:46;;;;;;;3.25;3.00;;;22.10;99.90;;;;;;5056765;28;20044;-67
2023/09/09 07:39:11;;;;;;;3.15;2.85;;;22.10;99.90;;;;;;5074669;28;20044;-67
2023/09/09 07:41:37;;;;;;;2.70;2.50;;;22.30;99.90;;;;;;5075128;28;20079;-64
2023/09/09 07:44:03;;;;;;;3.15;2.85;;;22.10;99.90;;;;;;5074570;28;20040;-64
2023/09/09 07:46:28;;;;;;;2.92;2.70;;;22.40;99.90;;;;;;5074535;28;20036;-64
2023/09/09 07:48:54;;;;;;;2.97;2.65;;;22.50;99.90;;;;;;5074587;28;20486;-63
2023/09/09 07:51:22;;;;;;;2.58;2.38;;;22.60;99.90;;;;;;5074497;28;20032;-68
2023/09/09 07:53:48;;;;;;;3.15;2.85;;;22.70;99.90;;;;;;5074401;28;20041;-68
2023/09/09 07:56:14;;;;;;;3.00;2.67;;;22.70;99.90;;;;;;5074111;28;20407;-67
2023/09/09 07:58:39;;;;;;;3.63;3.33;;;22.70;51.50;;;;;;5074351;28;20500;-67
2023/09/09 08:01:07;;;;;;;2.80;2.60;;;22.80;1.00;;;;;;5074174;28;20431;-67
2023/09/09 08:03:33;;;;;;;2.80;2.53;;;22.90;1.00;;;;;;5074030;28;20059;-67
2023/09/09 08:06:06;;;;;;;3.00;2.80;;;23.00;99.90;;;;;;5074188;28;20480;-67
2023/09/09 08:08:32;;;;;;;2.65;2.45;;;22.90;99.90;;;;;;5074062;28;20048;-67
2023/09/09 08:10:58;;;;;;;3.78;2.47;;;23.20;99.90;;;;;;5074108;28;20044;-67
2023/09/09 08:13:26;;;;;;;2.75;2.55;;;23.20;99.90;;;;;;5073964;28;20040;-67
2023/09/09 08:15:51;;;;;;;3.53;3.22;;;23.40;1.00;;;;;;5074034;28;20025;-67
2023/09/09 08:18:17;;;;;;;3.55;3.25;;;23.30;1.00;;;;;;5073807;28;20082;-67
2023/09/09 08:20:42;;;;;;;3.55;3.25;;;23.40;99.90;;;;;;5073924;28;20041;-67
2023/09/09 08:23:08;;;;;;;2.95;2.67;;;23.40;99.90;;;;;;5073900;28;20041;-67
2023/09/09 08:25:34;;;;;;;3.25;3.03;;;23.50;99.90;;;;;;5055777;28;20052;-67
2023/09/09 08:28:03;;;;;;;3.60;3.30;;;23.60;1.00;;;;;;5073485;28;20503;-67
2023/09/09 08:30:29;;;;;;;3.90;3.17;;;23.60;99.90;;;;;;5073575;28;20043;-63
2023/09/09 08:32:55;;;;;;;4.15;3.80;;;23.90;99.90;;;;;;5073591;28;20048;-63
2023/09/09 08:35:22;;;;;;;3.70;3.40;;;23.80;1.00;;;;;;5054717;28;20041;-63
2023/09/09 08:37:48;;;;;;;3.53;3.22;;;23.80;99.90;;;;;;5073550;28;20075;-64
2023/09/09 08:40:13;;;;;;;3.28;3.08;;;23.90;1.00;;;;;;5073588;28;20502;-66
2023/09/09 08:42:58;;;;;;;3.25;3.03;;;24.00;99.90;;;;;;5073482;28;20052;-67
2023/09/09 08:45:48;;;;;;;4.03;3.72;;;24.00;99.90;;;;;;5073220;28;20048;-67
2023/09/09 08:48:18;;;;;;;4.10;3.80;;;24.10;99.90;;;;;;5073469;28;20394;-67
2023/09/09 08:50:47;;;;;;;4.65;4.28;;;24.10;1.00;;;;;;5073504;28;20036;-63
2023/09/09 08:53:13;;;;;;;4.63;4.22;;;24.10;47.90;;;;;;5073278;28;20093;-64
2023/09/09 08:55:40;;;;;;;3.53;3.22;;;24.20;99.90;;;;;;5072985;28;20032;-67
2023/09/09 08:58:06;;;;;;;4.15;3.80;;;24.30;1.00;;;;;;5073189;28;20094;-66
2023/09/09 09:00:35;;;;;;;3.95;3.65;;;24.30;99.90;;;;;;5073087;28;20032;-70
2023/09/09 09:03:02;;;;;;;3.60;3.30;;;24.40;99.90;;;;;;5073239;28;20464;-70
2023/09/09 09:05:32;;;;;;;3.40;3.20;;;24.50;99.90;;;;;;5055020;28;20044;-70
2023/09/09 09:08:00;;;;;;;3.40;3.10;;;24.40;99.90;;;;;;5072806;28;20047;-70
2023/09/09 09:10:25;;;;;;;2.85;2.60;;;24.50;99.90;;;;;;5073141;28;20511;-69
2023/09/09 09:12:51;;;;;;;2.92;2.72;;;24.60;99.90;;;;;;5072679;28;20036;-69
2023/09/09 09:15:17;;;;;;;5.97;5.18;;;25.10;1.00;;;;;;5055056;28;20063;-69
2023/09/09 09:17:44;;;;;;;4.25;3.85;;;24.70;99.90;;;;;;5073138;28;20472;-70
2023/09/09 09:20:30;;;;;;;4.10;3.30;;;24.70;99.90;;;;;;5054691;28;20106;-70
2023/09/09 09:23:05;;;;;;;2.80;2.60;;;24.80;99.90;;;;;;5072588;28;20041;-70
2023/09/09 09:25:41;;;;;;;3.45;3.10;;;24.90;55.40;;;;;;5073028;28;20068;-70
2023/09/09 09:28:07;;;;;;;4.20;3.72;;;24.90;99.90;;;;;;5072957;28;20032;-70
2023/09/09 09:30:34;;;;;;;3.30;3.10;;;24.80;99.90;;;;;;5072750;28;20037;-70
2023/09/09 09:33:00;;;;;;;3.33;3.03;;;25.00;99.90;;;;;;5072937;28;20083;-70
2023/09/09 09:35:30;;;;;;;3.78;3.13;;;25.00;99.90;;;;;;5072908;28;20106;-70
2023/09/09 09:37:57;;;;;;;3.42;3.17;;;25.10;99.90;;;;;;5072971;28;20098;-70
2023/09/09 09:40:23;;;;;;;3.25;3.03;;;25.20;99.90;;;;;;5072622;28;20058;-66
2023/09/09 09:42:50;;;;;;;3.65;3.35;;;25.20;1.00;;;;;;5072888;28;20536;-66
2023/09/09 09:45:16;;;;;;;3.00;2.80;;;25.20;36.80;;;;;;5072659;28;20476;-66
2023/09/09 09:47:50;;;;;;;3.58;3.28;;;25.30;1.00;;;;;;5075462;28;20032;-67
2023/09/09 09:50:37;;;;;;;3.10;2.90;;;25.20;99.90;;;;;;5076499;28;20040;-66
2023/09/09 09:53:04;;;;;;;3.20;3.00;;;25.50;1.00;;;;;;5058537;28;20048;-67
2023/09/09 09:55:32;;;;;;;3.08;2.88;;;25.20;81.50;;;;;;5076660;28;20037;-68
2023/09/09 09:58:03;;;;;;;3.78;2.90;;;25.60;1.00;;;;;;5076704;28;20033;-68
2023/09/09 10:00:29;;;;;;;3.13;2.83;;;25.70;99.90;;;;;;5076262;28;20040;-67
2023/09/09 10:03:00;;;;;;;3.70;3.45;;;25.50;99.90;;;;;;5058372;28;20059;-67
2023/09/09 10:05:28;;;;;;;4.40;3.80;;;25.80;99.90;;;;;;5076528;28;20040;-71
2023/09/09 10:08:17;;;;;;;3.67;3.38;;;26.40;99.90;;;;;;5058588;28;20047;-68
2023/09/09 10:10:51;;;;;;;3.63;3.33;;;25.90;99.90;;;;;;5076592;28;20051;-68
2023/09/09 10:13:35;;;;;;;3.65;3.35;;;26.00;99.90;;;;;;5058117;28;20048;-68
2023/09/09 10:16:01;;;;;;;3.45;3.20;;;26.00;99.90;;;;;;5058516;28;20091;-67
2023/09/09 10:18:28;;;;;;;3.70;3.40;;;26.10;99.90;;;;;;5076043;28;20084;-67
2023/09/09 10:20:54;;;;;;;3.47;3.22;;;26.20;99.90;;;;;;5058470;28;20476;-72
2023/09/09 10:23:21;;;;;;;4.07;3.78;;;26.30;99.90;;;;;;5076227;28;20043;-71
2023/09/09 10:25:50;;;;;;;3.83;3.53;;;26.40;99.90;;;;;;5076075;28;20047;-71
2023/09/09 10:28:19;;;;;;;3.60;3.30;;;26.40;99.90;;;;;;5076118;28;20056;-71
2023/09/09 10:30:47;;;;;;;4.15;3.60;;;26.50;99.90;;;;;;5075944;28;20461;-69
2023/09/09 10:33:14;;;;;;;4.20;3.80;;;26.50;99.90;;;;;;5075974;28;20124;-78
2023/09/09 10:35:43;;;;;;;3.50;3.20;;;26.30;99.90;;;;;;5058088;28;20036;-69
2023/09/09 10:38:11;;;;;;;4.32;3.92;;;26.60;99.90;;;;;;5041262;28;20119;-70
2023/09/09 10:40:38;;;;;;;4.43;4.13;;;26.60;99.90;;;;;;5075540;28;20037;-74
2023/09/09 10:43:04;;;;;;;4.60;4.20;;;26.70;99.90;;;;;;5075601;28;20052;-70
2023/09/09 10:45:32;;;;;;;3.38;3.17;;;26.80;99.90;;;;;;5075755;28;20041;-70
2023/09/09 10:48:04;;;;;;;3.00;2.80;;;26.80;99.90;;;;;;5075831;28;20062;-70
2023/09/09 10:50:46;;;;;;;3.50;3.22;;;26.80;22.60;;;;;;5075532;28;20049;-67
2023/09/09 10:53:32;;;;;;;3.58;3.28;;;26.80;1.00;;;;;;5075295;28;20124;-68
2023/09/09 10:56:00;;;;;;;3.55;3.25;;;26.80;1.00;;;;;;5057416;28;20152;-67
2023/09/09 10:58:34;;;;;;;3.10;2.90;;;27.00;1.00;;;;;;5074418;28;20528;-67
2023/09/09 11:01:00;;;;;;;3.33;3.10;;;26.90;1.00;;;;;;5057455;28;20041;-68
2023/09/09 11:03:45;;;;;;;3.03;2.83;;;26.80;1.00;;;;;;5075409;28;20113;-67
2023/09/09 11:06:24;;;;;;;2.85;2.65;;;26.80;1.00;;;;;;5075418;28;20040;-67
2023/09/09 11:08:57;;;;;;;3.00;2.80;;;26.90;1.00;;;;;;5075221;28;20393;-66
2023/09/09 11:11:30;;;;;;;2.95;2.70;;;26.90;1.00;;;;;;5075334;28;20075;-66
2023/09/09 11:14:02;;;;;;;2.55;2.35;;;27.00;1.00;;;;;;5075266;28;20488;-66
2023/09/09 11:16:35;;;;;;;2.88;2.67;;;27.00;1.00;;;;;;5074997;28;20048;-66
2023/09/09 11:19:11;;;;;;;2.70;2.45;;;27.00;1.00;;;;;;5074858;28;20040;-66
2023/09/09 11:21:45;;;;;;;2.40;2.20;;;27.00;1.00;;;;;;5074737;28;20037;-66
2023/09/09 11:24:10;;;;;;;2.60;2.40;;;27.00;1.00;;;;;;5074920;28;20396;-67
2023/09/09 11:26:44;;;;;;;2.75;2.55;;;27.10;99.90;;;;;;5074935;28;20036;-67
2023/09/09 11:29:11;;;;;;;2.60;2.40;;;27.00;99.90;;;;;;5074523;28;20040;-66
2023/09/09 11:31:36;;;;;;;3.35;2.70;;;27.00;99.90;;;;;;5074588;28;20601;-66
2023/09/09 11:34:03;;;;;;;3.17;2.88;;;27.00;99.90;;;;;;5074781;28;20036;-67
2023/09/09 11:36:29;;;;;;;2.22;1.90;;;27.10;99.90;;;;;;5074503;28;20403;-67
2023/09/09 11:39:03;;;;;;;2.15;1.95;;;27.50;99.90;;;;;;5074400;28;20037;-66
2023/09/09 11:41:31;;;;;;;2.85;2.20;;;27.20;99.90;;;;;;5074440;28;20037;-66
2023/09/09 11:43:57;;;;;;;2.33;2.03;;;27.20;99.90;;;;;;5074649;28;20100;-66
2023/09/09 11:46:23;;;;;;;2.72;2.20;;;27.60;99.90;;;;;;5074573;28;20052;-66
2023/09/09 11:48:50;;;;;;;2.10;1.90;;;27.70;99.90;;;;;;5074536;28;20044;-71
2023/09/09 11:51:15;;;;;;;2.17;1.98;;;27.50;99.90;;;;;;5074363;28;20395;-66
2023/09/09 11:53:41;;;;;;;2.75;2.33;;;27.50;99.90;;;;;;5074110;28;20044;-66
2023/09/09 11:56:06;;;;;;;2.42;1.95;;;27.50;99.90;;;;;;5074392;28;20049;-66
2023/09/09 11:58:42;;;;;;;2.08;1.98;;;27.60;99.90;;;;;;5074121;28;20472;-66
2023/09/09 12:01:08;;;;;;;2.90;2.10;;;27.60;99.90;;;;;;5056434;28;20041;-66
2023/09/09 12:03:34;;;;;;;2.63;2.30;;;27.70;99.90;;;;;;5056258;28;20045;-63
2023/09/09 12:06:02;;;;;;;1.98;1.77;;;27.60;99.90;;;;;;5074262;28;20472;-64
2023/09/09 12:08:29;;;;;;;1.90;1.70;;;27.60;99.90;;;;;;5074048;28;20127;-64
2023/09/09 12:10:57;;;;;;;2.00;1.90;;;27.60;99.90;;;;;;5073952;28;20041;-70
2023/09/09 12:13:23;;;;;;;2.20;1.88;;;27.60;99.90;;;;;;5073421;28;20086;-67
2023/09/09 12:15:49;;;;;;;2.53;2.33;;;27.70;99.90;;;;;;5073705;28;20048;-67
2023/09/09 12:18:15;;;;;;;2.10;1.90;;;27.80;99.90;;;;;;5073431;28;20048;-67
2023/09/09 12:21:06;;;;;;;5.75;2.10;;;27.80;99.90;;;;;;5055646;28;20047;-67
2023/09/09 12:23:34;;;;;;;3.05;2.17;;;27.80;99.90;;;;;;5073511;28;20048;-67
2023/09/09 12:26:18;;;;;;;3.03;2.55;;;27.70;99.90;;;;;;5073730;28;20440;-67
2023/09/09 12:28:46;;;;;;;2.40;2.20;;;28.00;99.90;;;;;;5073812;28;20132;-68
2023/09/09 12:31:12;;;;;;;1.85;1.75;;;27.70;99.90;;;;;;5073414;28;20512;-67
2023/09/09 12:33:44;;;;;;;2.60;2.40;;;27.80;99.90;;;;;;5055477;28;20137;-67
2023/09/09 12:36:18;;;;;;;2.67;2.47;;;27.90;99.90;;;;;;5073653;28;20469;-67
2023/09/09 12:38:46;;;;;;;2.88;2.67;;;27.90;99.90;;;;;;5073588;28;20373;-67
2023/09/09 12:41:15;;;;;;;2.65;2.45;;;27.80;99.90;;;;;;5073537;28;20062;-67
2023/09/09 12:43:41;;;;;;;2.70;2.50;;;27.80;99.90;;;;;;5073316;28;20050;-67
2023/09/09 12:46:18;;;;;;;2.35;2.17;;;27.80;99.90;;;;;;5073167;28;20040;-67
2023/09/09 12:49:02;;;;;;;2.38;2.17;;;27.80;99.90;;;;;;5055309;28;20051;-67